createdAt,value
2018-10-03T00:01:51.428Z,73.05
2018-10-03T00:04:20.279Z,74.06
2018-10-03T00:06:49.277Z,74.25
2018-10-03T00:09:19.829Z,74.42
2018-10-03T00:11:51.428Z,74.46
2018-10-03T00:14:21.172Z,74.59
2018-10-03T00:16:52.257Z,75.10
2018-10-03T00:19:21.576Z,75.33
2018-10-03T00:21:51.013Z,74.55
2018-10-03T00:24:22.368Z,74.94
2018-10-03T00:26:54.332Z,75.27
2018-10-03T00:29:23.333Z,74.59
2018-10-03T00:31:52.057Z,74.57
2018-10-03T00:34:22.164Z,75.06
2018-10-03T00:36:52.064Z,74.30
2018-10-03T00:39:22.281Z,74.33
2018-10-03T00:41:51.632Z,74.24
2018-10-03T00:44:20.368Z,74.87
2018-10-03T00:46:49.240Z,73.71
2018-10-03T00:49:19.553Z,73.31
2018-10-03T00:51:52.298Z,73.46
2018-10-03T00:54:21.417Z,73.54
2018-10-03T00:56:53.102Z,73.59
2018-10-03T00:59:23.908Z,73.74
2018-10-03T01:01:53.910Z,74.08
2018-10-03T01:04:24.227Z,74.13
2018-10-03T01:06:52.979Z,73.56
2018-10-03T01:09:22.274Z,73.58
2018-10-03T01:11:51.631Z,72.99
2018-10-03T01:14:21.135Z,72.91
2018-10-03T01:16:49.951Z,73.26
2018-10-03T01:19:21.007Z,74.04
2018-10-03T01:21:50.567Z,74.21
2018-10-03T01:24:19.651Z,74.25
2018-10-03T01:26:48.693Z,74.42
2018-10-03T01:29:17.549Z,74.44
2018-10-03T01:31:46.447Z,74.51
2018-10-03T01:34:17.162Z,75.07
2018-10-03T01:36:46.944Z,75.22
2018-10-03T01:39:16.583Z,74.38
2018-10-03T01:41:47.613Z,73.82
2018-10-03T01:44:16.832Z,74.21
2018-10-03T01:47:06.099Z,75.22
2018-10-03T01:49:35.252Z,74.53
2018-10-03T01:52:04.295Z,74.36
2018-10-03T01:54:34.271Z,74.00
2018-10-03T01:57:04.124Z,75.04
2018-10-03T01:59:33.688Z,74.22
2018-10-03T02:02:02.260Z,74.56
2018-10-03T02:04:31.666Z,74.29
2018-10-03T02:07:00.315Z,73.98
2018-10-03T02:09:29.732Z,74.52
2018-10-03T02:11:58.469Z,73.41
2018-10-03T02:14:29.585Z,74.45
2018-10-03T02:16:58.126Z,73.22
2018-10-03T02:19:27.611Z,73.03
2018-10-03T02:22:00.049Z,73.36
2018-10-03T02:24:29.123Z,74.19
2018-10-03T02:26:58.668Z,74.50
2018-10-03T02:29:28.689Z,74.89
2018-10-03T02:32:00.948Z,75.19
2018-10-03T02:34:30.880Z,74.73
2018-10-03T02:37:00.423Z,75.98
2018-10-03T02:39:31.043Z,75.99
2018-10-03T02:42:00.217Z,77.34
2018-10-03T02:44:28.684Z,77.15
2018-10-03T02:46:58.139Z,77.79
2018-10-03T02:49:28.099Z,78.19
2018-10-03T02:51:58.074Z,78.48
2018-10-03T02:54:27.300Z,78.09
2018-10-03T02:56:58.384Z,79.05
2018-10-03T02:59:28.520Z,79.04
2018-10-03T03:01:58.423Z,80.80
2018-10-03T03:04:28.471Z,79.86
2018-10-03T03:06:57.660Z,80.68
2018-10-03T03:09:27.829Z,81.71
2018-10-03T03:11:56.676Z,80.39
2018-10-03T03:14:26.290Z,80.38
2018-10-03T03:16:54.783Z,81.74
2018-10-03T03:19:24.447Z,81.17
2018-10-03T03:21:53.107Z,81.08
2018-10-03T03:24:23.580Z,81.02
2018-10-03T03:26:54.219Z,80.97
2018-10-03T03:29:23.607Z,81.47
2018-10-03T03:31:52.711Z,80.28
2018-10-03T03:34:22.453Z,81.18
2018-10-03T03:36:59.111Z,80.80
2018-10-03T03:39:30.664Z,80.49
2018-10-03T03:41:59.808Z,81.00
2018-10-03T03:44:30.025Z,81.57
2018-10-03T03:46:58.737Z,80.90
2018-10-03T03:49:27.575Z,80.74
2018-10-03T03:51:56.720Z,80.40
2018-10-03T03:54:26.299Z,81.32
2018-10-03T03:56:55.317Z,81.38
2018-10-03T03:59:26.460Z,80.84
2018-10-03T04:01:56.462Z,80.54
2018-10-03T04:04:24.955Z,81.10
2018-10-03T04:06:55.635Z,80.35
2018-10-03T04:09:25.712Z,79.85
2018-10-03T04:11:56.697Z,79.83
2018-10-03T04:14:25.753Z,79.92
2018-10-03T04:16:54.267Z,79.90
2018-10-03T04:19:23.461Z,79.76
2018-10-03T04:21:52.003Z,78.78
2018-10-03T04:24:21.981Z,78.69
2018-10-03T04:26:51.783Z,78.18
2018-10-03T04:29:21.747Z,78.73
2018-10-03T04:31:52.142Z,77.96
2018-10-03T04:34:21.298Z,77.51
2018-10-03T04:36:53.819Z,79.15
2018-10-03T04:39:24.278Z,80.72
2018-10-03T04:41:53.155Z,80.56
2018-10-03T04:44:23.216Z,81.76
2018-10-03T04:46:56.523Z,79.90
2018-10-03T04:49:26.165Z,80.39
2018-10-03T04:51:56.103Z,80.31
2018-10-03T04:54:25.904Z,81.25
2018-10-03T04:56:54.439Z,81.24
2018-10-03T04:59:23.817Z,80.82
2018-10-03T05:01:59.233Z,80.10
2018-10-03T05:04:28.396Z,80.64
2018-10-03T05:06:58.983Z,80.27
2018-10-03T05:09:27.943Z,80.95
2018-10-03T05:11:58.156Z,80.84
2018-10-03T05:14:27.444Z,81.21
2018-10-03T05:16:56.007Z,80.49
2018-10-03T05:19:24.962Z,79.75
2018-10-03T05:21:54.917Z,80.65
2018-10-03T05:24:24.129Z,80.73
2018-10-03T05:26:55.723Z,79.69
2018-10-03T05:29:24.228Z,79.99
2018-10-03T05:31:53.829Z,78.84
2018-10-03T05:34:22.811Z,79.44
2018-10-03T05:36:52.124Z,79.16
2018-10-03T05:39:21.386Z,78.57
2018-10-03T05:41:50.456Z,78.48
2018-10-03T05:44:20.329Z,77.31
2018-10-03T05:46:49.788Z,76.66
2018-10-03T05:49:18.551Z,77.31
2018-10-03T05:51:50.047Z,78.90
2018-10-03T05:54:18.541Z,77.20
2018-10-03T05:56:49.229Z,77.97
2018-10-03T05:59:18.803Z,77.32
2018-10-03T06:01:47.944Z,77.84
2018-10-03T06:04:18.340Z,77.90
2018-10-03T06:06:46.952Z,77.92
2018-10-03T06:09:16.907Z,78.73
2018-10-03T06:11:46.619Z,78.25
2018-10-03T06:14:17.173Z,77.67
2018-10-03T06:16:47.143Z,77.56
2018-10-03T06:19:17.152Z,77.71
2018-10-03T06:21:46.772Z,77.81
2018-10-03T06:24:15.514Z,78.45
2018-10-03T06:26:44.680Z,77.82
2018-10-03T06:29:16.712Z,78.25
2018-10-03T06:31:47.063Z,79.27
2018-10-03T06:34:17.058Z,78.77
2018-10-03T06:36:46.764Z,79.62
2018-10-03T06:39:17.133Z,79.54
2018-10-03T06:41:47.861Z,79.36
2018-10-03T06:44:20.001Z,79.49
2018-10-03T06:46:50.931Z,80.00
2018-10-03T06:49:21.951Z,80.46
2018-10-03T06:51:52.228Z,81.31
2018-10-03T06:54:22.216Z,81.90
2018-10-03T06:56:54.665Z,81.74
2018-10-03T06:59:24.874Z,81.11
2018-10-03T07:01:54.312Z,80.80
2018-10-03T07:04:24.913Z,80.21
2018-10-03T07:06:58.511Z,81.10
2018-10-03T07:09:28.579Z,80.72
2018-10-03T07:11:58.259Z,81.21
2018-10-03T07:14:27.085Z,82.01
2018-10-03T07:16:57.804Z,82.25
2018-10-03T07:19:27.818Z,81.88
2018-10-03T07:22:00.308Z,82.65
2018-10-03T07:24:29.807Z,82.01
2018-10-03T07:27:00.612Z,82.55
2018-10-03T07:29:31.643Z,82.59
2018-10-03T07:32:00.572Z,81.94
2018-10-03T07:34:30.220Z,81.80
2018-10-03T07:37:00.039Z,81.18
2018-10-03T07:39:30.143Z,82.77
2018-10-03T07:42:00.675Z,82.70
2018-10-03T07:44:30.771Z,83.07
2018-10-03T07:46:59.865Z,82.45
2018-10-03T07:49:32.293Z,82.94
2018-10-03T07:52:02.207Z,82.04
2018-10-03T07:54:31.996Z,82.95
2018-10-03T07:57:01.275Z,82.39
2018-10-03T07:59:33.105Z,80.68
2018-10-03T08:02:05.603Z,78.79
2018-10-03T08:04:35.179Z,79.22
2018-10-03T08:07:04.897Z,79.89
2018-10-03T08:09:36.060Z,78.40
2018-10-03T08:12:05.013Z,79.17
2018-10-03T08:14:34.522Z,77.05
2018-10-03T08:17:03.615Z,74.58
2018-10-03T08:19:36.067Z,76.09
2018-10-03T08:22:05.652Z,74.67
2018-10-03T08:24:34.390Z,75.46
2018-10-03T08:27:05.296Z,74.87
2018-10-03T08:29:34.869Z,77.31
2018-10-03T08:32:04.690Z,77.26
2018-10-03T08:34:35.493Z,76.57
2018-10-03T08:37:05.596Z,77.23
2018-10-03T08:39:42.207Z,78.41
2018-10-03T08:42:12.728Z,76.96
2018-10-03T08:44:44.267Z,75.49
2018-10-03T08:47:13.948Z,75.73
2018-10-03T08:49:43.904Z,74.87
2018-10-03T08:52:12.905Z,74.23
2018-10-03T08:54:43.102Z,73.81
2018-10-03T08:57:13.119Z,73.85
2018-10-03T08:59:44.121Z,73.80
2018-10-03T09:02:15.156Z,73.89
2018-10-03T09:04:45.267Z,73.48
2018-10-03T09:07:15.961Z,73.09
2018-10-03T09:09:51.523Z,73.89
2018-10-03T09:12:20.941Z,73.75
2018-10-03T09:14:51.433Z,71.98
2018-10-03T09:17:22.725Z,74.20
2018-10-03T09:19:52.500Z,74.16
2018-10-03T09:22:23.739Z,72.19
2018-10-03T09:24:57.833Z,72.40
2018-10-03T09:27:28.222Z,72.73
2018-10-03T09:29:57.312Z,71.62
2018-10-03T09:32:26.423Z,71.34
2018-10-03T09:34:54.948Z,72.18
2018-10-03T09:37:27.490Z,72.58
2018-10-03T09:40:03.223Z,72.10
2018-10-03T09:42:34.128Z,71.60
2018-10-03T09:45:05.779Z,71.25
2018-10-03T09:47:35.757Z,71.00
2018-10-03T09:50:05.398Z,70.53
2018-10-03T09:52:37.616Z,68.55
2018-10-03T09:55:08.870Z,68.92
2018-10-03T09:57:37.650Z,69.66
2018-10-03T10:00:09.479Z,70.15
2018-10-03T10:02:42.931Z,68.95
2018-10-03T10:05:11.891Z,70.69
2018-10-03T10:07:41.912Z,68.47
2018-10-03T10:10:12.095Z,68.28
2018-10-03T10:12:41.917Z,69.26
2018-10-03T10:15:11.873Z,69.78
2018-10-03T10:17:41.957Z,69.13
2018-10-03T10:20:11.517Z,68.71
2018-10-03T10:22:39.999Z,66.53
2018-10-03T10:25:08.840Z,65.86
2018-10-03T10:27:38.243Z,65.39
2018-10-03T10:30:16.195Z,66.08
2018-10-03T10:32:45.741Z,65.34
2018-10-03T10:35:15.408Z,63.93
2018-10-03T10:37:44.474Z,61.70
2018-10-03T10:40:15.196Z,64.29
2018-10-03T10:42:44.348Z,64.85
2018-10-03T10:45:15.072Z,65.64
2018-10-03T10:47:44.125Z,63.47
2018-10-03T10:50:13.460Z,62.08
2018-10-03T10:52:43.363Z,63.76
2018-10-03T10:55:12.968Z,62.29
2018-10-03T10:58:13.452Z,62.74
2018-10-03T11:11:29.052Z,62.90
2018-10-03T11:14:06.942Z,62.16
2018-10-03T11:17:03.903Z,62.09
2018-10-03T11:19:43.596Z,62.44
2018-10-03T11:22:13.023Z,62.08
2018-10-03T11:24:41.965Z,63.16
2018-10-03T11:27:11.524Z,62.76
2018-10-03T11:29:41.954Z,61.04
2018-10-03T11:32:19.287Z,59.19
2018-10-03T11:34:49.508Z,60.72
2018-10-03T11:37:20.403Z,61.37
2018-10-03T11:39:49.916Z,60.37
2018-10-03T11:42:19.780Z,61.58
2018-10-03T11:44:48.635Z,62.43
2018-10-03T11:47:18.177Z,63.14
2018-10-03T11:49:48.313Z,63.47
2018-10-03T11:52:17.746Z,62.84
2018-10-03T11:54:46.792Z,64.38
2018-10-03T11:57:15.531Z,65.21
2018-10-03T11:59:45.559Z,65.75
2018-10-03T12:02:15.425Z,65.35
2018-10-03T12:04:44.808Z,64.72
2018-10-03T12:07:15.064Z,64.59
2018-10-03T12:09:43.625Z,65.77
2018-10-03T12:12:14.460Z,66.42
2018-10-03T12:14:43.072Z,67.27
2018-10-03T12:17:13.058Z,67.81
2018-10-03T12:19:43.086Z,66.24
2018-10-03T12:22:12.449Z,66.56
2018-10-03T12:24:41.248Z,65.74
2018-10-03T12:27:11.508Z,67.14
2018-10-03T12:29:42.652Z,66.58
2018-10-03T12:32:12.144Z,66.33
2018-10-03T12:34:43.235Z,65.19
2018-10-03T12:37:12.828Z,65.50
2018-10-03T12:39:43.514Z,65.48
2018-10-03T12:42:13.516Z,65.97
2018-10-03T12:44:43.681Z,65.11
2018-10-03T12:47:13.129Z,65.17
2018-10-03T12:49:42.551Z,63.59
2018-10-03T12:52:12.232Z,63.50
2018-10-03T12:54:45.770Z,63.97
2018-10-03T12:57:18.004Z,64.12
2018-10-03T12:59:47.412Z,64.53
2018-10-03T13:02:17.147Z,65.15
2018-10-03T13:04:46.154Z,64.06
2018-10-03T13:07:16.772Z,64.12
2018-10-03T13:09:45.609Z,65.40
2018-10-03T13:12:16.213Z,65.30
2018-10-03T13:14:45.409Z,65.68
2018-10-03T13:17:15.683Z,66.16
2018-10-03T13:19:45.271Z,65.34
2018-10-03T13:22:14.582Z,62.52
2018-10-03T13:24:43.935Z,62.73
2018-10-03T13:27:13.640Z,63.49
2018-10-03T13:29:44.171Z,63.63
2018-10-03T13:32:14.156Z,63.71
2018-10-03T13:34:43.273Z,64.81
2018-10-03T13:37:12.868Z,64.57
2018-10-03T13:39:43.243Z,65.21
2018-10-03T13:42:11.787Z,65.46
2018-10-03T13:44:41.804Z,64.38
2018-10-03T13:47:11.212Z,65.15
2018-10-03T13:49:40.772Z,65.62
2018-10-03T13:52:09.555Z,65.33
2018-10-03T13:54:39.694Z,63.82
2018-10-03T13:57:09.108Z,63.34
2018-10-03T13:59:38.430Z,64.25
2018-10-03T14:02:09.122Z,61.91
2018-10-03T14:04:39.548Z,62.56
2018-10-03T14:07:09.657Z,62.52
2018-10-03T14:09:39.109Z,63.16
2018-10-03T14:12:08.637Z,64.73
2018-10-03T14:14:37.124Z,62.56
2018-10-03T14:17:06.856Z,61.92
2018-10-03T14:19:36.710Z,61.77
2018-10-03T14:22:07.944Z,62.10
2018-10-03T14:24:38.069Z,64.29
2018-10-03T14:27:07.644Z,63.06
2018-10-03T14:29:36.255Z,62.69
2018-10-03T14:32:05.996Z,61.89
2018-10-03T14:34:36.145Z,61.39
2018-10-03T14:37:05.655Z,61.27
2018-10-03T14:39:35.307Z,59.13
2018-10-03T14:42:04.454Z,58.66
2018-10-03T14:44:35.978Z,58.90
2018-10-03T14:47:06.043Z,60.84
2018-10-03T14:49:36.678Z,60.78
2018-10-03T14:52:05.737Z,60.00
2018-10-03T14:54:35.887Z,59.13
2018-10-03T14:57:05.448Z,57.70
2018-10-03T14:59:36.008Z,58.44
2018-10-03T15:02:04.979Z,60.87
2018-10-03T15:04:34.437Z,60.68
2018-10-03T15:07:05.923Z,59.65
2018-10-03T15:09:34.478Z,57.68
2018-10-03T15:12:03.964Z,58.00
2018-10-03T15:14:33.271Z,59.74
2018-10-03T15:17:03.390Z,60.53
2018-10-03T15:19:32.746Z,59.56
2018-10-03T15:22:01.792Z,59.59
2018-10-03T15:24:31.578Z,60.90
2018-10-03T15:27:03.379Z,61.32
2018-10-03T15:29:32.981Z,61.33
2018-10-03T15:32:02.418Z,62.03
2018-10-03T15:34:32.507Z,60.21
2018-10-03T15:37:01.895Z,60.52
2018-10-03T15:39:32.716Z,62.89
2018-10-03T15:42:03.033Z,61.58
2018-10-03T15:44:33.274Z,61.02
2018-10-03T15:47:08.012Z,60.08
2018-10-03T15:49:37.996Z,62.03
2018-10-03T15:52:07.497Z,62.91
2018-10-03T15:54:36.283Z,62.58
2018-10-03T15:57:06.703Z,61.80
2018-10-03T15:59:35.646Z,63.01
2018-10-03T16:02:05.271Z,61.16
2018-10-03T16:04:35.041Z,60.46
2018-10-03T16:07:04.510Z,59.46
2018-10-03T16:09:34.643Z,59.66
2018-10-03T16:12:05.593Z,58.43
2018-10-03T16:14:35.612Z,58.55
2018-10-03T16:17:09.970Z,58.69
2018-10-03T16:19:39.143Z,59.89
2018-10-03T16:22:09.474Z,60.54
2018-10-03T16:24:38.224Z,61.23
2018-10-03T16:27:07.904Z,62.43
2018-10-03T16:29:37.104Z,63.74
2018-10-03T16:32:07.144Z,63.27
2018-10-03T16:34:36.171Z,61.94
2018-10-03T16:37:06.555Z,62.51
2018-10-03T16:39:35.895Z,63.45
2018-10-03T16:42:05.332Z,62.10
2018-10-03T16:44:35.368Z,62.72
2018-10-03T16:47:09.280Z,62.09
2018-10-03T16:49:38.781Z,60.13
2018-10-03T16:52:07.939Z,58.28
2018-10-03T16:54:37.344Z,59.24
2018-10-03T16:57:06.504Z,58.48
2018-10-03T16:59:36.630Z,60.60
2018-10-03T17:02:06.189Z,60.26
2018-10-03T17:04:35.183Z,60.08
2018-10-03T17:07:03.814Z,61.01
2018-10-03T17:09:33.058Z,62.67
2018-10-03T17:12:04.067Z,61.64
2018-10-03T17:14:36.911Z,60.70
2018-10-03T17:17:12.723Z,61.07
2018-10-03T17:19:41.300Z,60.91
2018-10-03T17:22:10.356Z,61.61
2018-10-03T17:24:39.751Z,63.63
2018-10-03T17:27:09.200Z,64.42
2018-10-03T17:29:39.552Z,64.91
2018-10-03T17:32:08.505Z,64.87
2018-10-03T17:34:39.480Z,64.79
2018-10-03T17:37:09.035Z,65.31
2018-10-03T17:39:37.525Z,63.97
2018-10-03T17:42:08.106Z,65.36
2018-10-03T17:44:37.648Z,66.37
2018-10-03T17:47:07.345Z,67.01
2018-10-03T17:49:37.410Z,67.69
2018-10-03T17:52:08.020Z,67.43
2018-10-03T17:54:41.013Z,67.79
2018-10-03T17:57:12.091Z,67.26
2018-10-03T17:59:40.623Z,67.64
2018-10-03T18:02:12.325Z,68.98
2018-10-03T18:04:41.360Z,69.28
2018-10-03T18:07:11.109Z,69.26
2018-10-03T18:09:41.281Z,71.88
2018-10-03T18:12:10.461Z,71.41
2018-10-03T18:14:39.936Z,70.91
2018-10-03T18:17:09.519Z,71.02
2018-10-03T18:19:40.044Z,69.99
2018-10-03T18:22:09.133Z,69.39
2018-10-03T18:24:38.858Z,69.96
2018-10-03T18:27:09.621Z,69.87
2018-10-03T18:29:39.056Z,67.91
2018-10-03T18:32:09.071Z,69.16
2018-10-03T18:34:44.821Z,70.39
2018-10-03T18:37:16.239Z,70.61
2018-10-03T18:39:47.878Z,71.07
2018-10-03T18:42:17.764Z,71.71
2018-10-03T18:44:49.135Z,72.40
2018-10-03T18:47:21.500Z,72.18
2018-10-03T18:49:52.711Z,72.92
2018-10-03T18:52:21.709Z,72.45
2018-10-03T18:54:52.435Z,72.07
2018-10-03T18:58:50.754Z,73.34
2018-10-03T19:01:21.772Z,73.36
2018-10-03T19:03:51.531Z,71.57
2018-10-03T19:06:21.965Z,70.57
2018-10-03T19:08:50.974Z,70.92
2018-10-03T19:11:24.238Z,72.59
2018-10-03T19:13:54.710Z,73.77
2018-10-03T19:16:24.649Z,71.05
2018-10-03T19:18:54.413Z,72.40
2018-10-03T19:21:24.951Z,71.99
2018-10-03T19:23:54.018Z,71.99
2018-10-03T19:26:26.159Z,70.01
2018-10-03T19:28:57.531Z,70.30
2018-10-03T19:31:27.445Z,71.53
2018-10-03T19:33:57.982Z,72.05
2018-10-03T19:36:26.965Z,71.45
2018-10-03T19:38:56.729Z,72.48
2018-10-03T19:41:25.705Z,71.25
2018-10-03T19:43:55.740Z,72.30
2018-10-03T19:46:27.126Z,72.36
2018-10-03T19:48:57.971Z,72.32
2018-10-03T19:51:26.758Z,72.34
2018-10-03T19:53:57.984Z,72.31
2018-10-03T19:56:27.480Z,70.89
2018-10-03T19:58:57.105Z,71.56
2018-10-03T20:01:26.936Z,72.48
2018-10-03T20:03:57.551Z,72.43
2018-10-03T20:06:26.016Z,71.70
2018-10-03T20:08:57.130Z,71.87
2018-10-03T20:11:27.375Z,72.03
2018-10-03T20:13:57.306Z,70.36
2018-10-03T20:16:27.226Z,70.57
2018-10-03T20:18:58.882Z,70.44
2018-10-03T20:21:27.435Z,69.66
2018-10-03T20:23:57.016Z,69.82
2018-10-03T20:26:26.697Z,70.89
2018-10-03T20:28:59.516Z,71.69
2018-10-03T20:31:30.120Z,71.70
2018-10-03T20:34:02.367Z,72.74
2018-10-03T20:36:32.637Z,69.59
2018-10-03T20:39:03.008Z,69.07
2018-10-03T20:41:32.040Z,70.49
2018-10-03T20:44:03.120Z,70.84
2018-10-03T20:46:32.540Z,71.54
2018-10-03T20:49:01.320Z,69.14
2018-10-03T20:51:31.139Z,68.54
2018-10-03T20:54:01.088Z,70.14
2018-10-03T20:56:30.749Z,68.91
2018-10-03T20:59:01.412Z,68.73
2018-10-03T21:01:31.843Z,68.76
2018-10-03T21:04:00.936Z,68.55
2018-10-03T21:06:30.046Z,69.42
2018-10-03T21:08:58.768Z,72.57
2018-10-03T21:11:28.656Z,75.38
2018-10-03T21:13:57.745Z,73.42
2018-10-03T21:16:28.223Z,73.31
2018-10-03T21:18:57.772Z,72.72
2018-10-03T21:21:27.411Z,71.27
2018-10-03T21:23:56.504Z,71.29
2018-10-03T21:26:25.946Z,70.61
2018-10-03T21:28:55.621Z,70.53
2018-10-03T21:31:24.509Z,72.05
2018-10-03T21:33:53.282Z,72.07
2018-10-03T21:36:22.180Z,71.49
2018-10-03T21:38:51.804Z,70.14
2018-10-03T21:41:21.060Z,69.08
2018-10-03T21:43:49.977Z,68.73
2018-10-03T21:46:19.410Z,70.00
2018-10-03T21:48:49.662Z,71.51
2018-10-03T21:51:19.830Z,70.49
2018-10-03T21:53:49.409Z,70.25
2018-10-03T21:56:19.260Z,70.10
2018-10-03T21:58:47.759Z,69.93
2018-10-03T22:01:17.367Z,68.94
2018-10-03T22:03:46.805Z,68.41
2018-10-03T22:06:16.488Z,67.69
2018-10-03T22:08:45.978Z,68.67
2018-10-03T22:11:15.500Z,68.63
2018-10-03T22:13:44.631Z,68.45
2018-10-03T22:16:13.131Z,68.23
2018-10-03T22:18:42.427Z,68.25
2018-10-03T22:21:13.293Z,68.93
2018-10-03T22:23:43.491Z,68.35
2018-10-03T22:26:12.979Z,69.24
2018-10-03T22:28:42.680Z,70.03
2018-10-03T22:31:12.085Z,69.15
2018-10-03T22:33:42.151Z,67.68
2018-10-03T22:36:11.808Z,69.89
2018-10-03T22:38:41.444Z,67.83
2018-10-03T22:41:09.973Z,67.33
2018-10-03T22:43:39.937Z,66.77
2018-10-03T22:46:09.926Z,66.63
2018-10-03T22:48:39.604Z,66.16
2018-10-03T22:51:09.199Z,66.75
2018-10-03T22:53:38.580Z,68.91
2018-10-03T22:56:08.236Z,67.45
2018-10-03T22:58:36.739Z,67.89
2018-10-03T23:01:08.639Z,67.00
2018-10-03T23:03:39.172Z,67.15
2018-10-03T23:06:08.463Z,67.56
2018-10-03T23:08:37.561Z,67.25
2018-10-03T23:11:06.710Z,66.49
2018-10-03T23:13:38.430Z,65.86
2018-10-03T23:16:08.169Z,66.11
2018-10-03T23:18:39.476Z,65.55
2018-10-03T23:21:08.825Z,65.26
2018-10-03T23:23:40.262Z,67.44
2018-10-03T23:26:09.015Z,65.44
2018-10-03T23:28:37.847Z,64.27
2018-10-03T23:31:07.481Z,66.15
2018-10-03T23:33:36.063Z,67.22
2018-10-03T23:36:07.677Z,68.27
2018-10-03T23:38:37.568Z,67.88
2018-10-03T23:41:06.668Z,69.47
2018-10-03T23:43:35.229Z,66.06
2018-10-03T23:46:06.425Z,66.48
2018-10-03T23:48:35.597Z,65.87
2018-10-03T23:51:05.107Z,64.56
2018-10-03T23:53:36.185Z,67.02
2018-10-03T23:56:05.047Z,66.33
2018-10-03T23:58:33.539Z,67.27
